Columbus Air Force Base Columbus US
ICAO: KCBM
IATA: CBM
Category: Large
Scheduled Services: No

Elevation: 219 ft
TransAlt. 18000 ft.

Airport Communications:
APP:126.075
ATIS:115.2
CLNC DEL:33.86
DEP:132.05
GND:121.9
SOF:25.21
PMSV METRO:34.46
PTD:37.6
TWR:128.65

KCBM Zoom In..

If Map Doesn't Load, Click Here

Runways:

(A) RW 13C length 12004 ft width 300 ft
ILS 109.30 / hdg 135

(B) RW 13L length 8001 ft width 150 ft
---- / hdg 135

(C) RW 13R length 6315 ft width 175 ft
---- / hdg 135

(D) RW 31C length 12004 ft width 300 ft
ILS 108.70 / hdg 315

(E) RW 31L length 6315 ft width 175 ft
---- / hdg 315

(F) RW 31R length 8001 ft width 150 ft
---- / hdg 315

Location; KCBM
Day. 23 / Time. 07.56 Zulu
* Altimeter: 29.97
* Temperature: 23° c. 73.4°f.
* Wind from: 140° Speed 03 kn.
Dewpoint: 22° c.
Visibility: 10 Statute Miles.
Clouds: Broken 12000 ft.

KCBM 230756Z AUTO 14003KT 10SM BKN120 23/22 A2997 RMK AO2 SLP149 T02300223 $


Wind From 140°
Speed 03 kn.

 
 
jpsmedia.com for Web Design worldairports.se 2018   terms of use